Time;durP1;ratioP1;P1;durP2;ratioP2;P2;SDS_P1;SDS_P2;PMS_P1;PMS_P2;Temp;Humidity;BMP_temperature;BMP_pressure;BME280_temperature;BME280_humidity;BME280_pressure;Samples;Min_cycle;Max_cycle;Signal;HPM_P1;HPM_P2
2021/09/11 00:00:01;;;;;;;13.10;9.33;;;;;;;18.47;97.14;96061.75;1044897;28;20389;-65
2021/09/11 00:00:31;;;;;;;11.93;9.80;;;;;;;18.47;97.80;96060.97;1044776;28;20017;-65
2021/09/11 00:01:01;;;;;;;14.33;9.57;;;;;;;18.51;97.07;96056.53;1044871;28;20021;-65
2021/09/11 00:01:32;;;;;;;11.87;10.00;;;;;;;18.45;97.48;96059.38;1044666;28;20021;-65
2021/09/11 00:02:03;;;;;;;15.50;10.77;;;;;;;18.39;98.34;96057.94;1044936;28;20020;-65
2021/09/11 00:02:33;;;;;;;14.57;9.60;;;;;;;18.39;98.77;96059.88;1044868;28;20017;-65
2021/09/11 00:03:03;;;;;;;12.67;10.07;;;;;;;18.41;98.13;96058.41;1044901;28;20021;-65
2021/09/11 00:03:34;;;;;;;12.77;9.83;;;;;;;18.38;98.03;96044.75;1044865;28;20017;-65
2021/09/11 00:04:04;;;;;;;11.63;10.40;;;;;;;18.39;98.85;96054.47;1044941;28;20021;-65
2021/09/11 00:04:35;;;;;;;15.97;9.43;;;;;;;18.39;98.77;96057.16;1044768;28;20024;-65
2021/09/11 00:05:05;;;;;;;15.17;10.70;;;;;;;18.36;98.11;96057.78;1044608;28;20028;-65
2021/09/11 00:05:36;;;;;;;11.80;10.20;;;;;;;18.36;99.06;96055.06;1044580;28;20032;-65
2021/09/11 00:06:07;;;;;;;12.97;10.77;;;;;;;18.34;98.80;96057.31;1044588;28;20052;-65
2021/09/11 00:06:37;;;;;;;13.67;10.47;;;;;;;18.31;99.91;96058.72;1040527;28;20037;-65
2021/09/11 00:07:07;;;;;;;14.30;10.83;;;;;;;18.34;99.57;96054.63;1044597;28;20021;-65
2021/09/11 00:07:38;;;;;;;12.67;10.70;;;;;;;18.35;98.85;96056.19;1044535;28;20025;-65
2021/09/11 00:08:08;;;;;;;12.90;9.90;;;;;;;18.32;99.69;96059.53;1044620;28;20020;-65
2021/09/11 00:08:39;;;;;;;14.17;11.03;;;;;;;18.34;99.05;96054.63;1044549;28;20047;-65
2021/09/11 00:09:09;;;;;;;12.27;9.93;;;;;;;18.35;99.67;96054.28;1044583;28;20378;-65
2021/09/11 00:09:40;;;;;;;15.47;10.37;;;;;;;18.36;99.69;96057.78;1040147;28;20021;-65
2021/09/11 00:10:11;;;;;;;16.37;10.50;;;;;;;18.35;100.00;96050.78;1036481;28;20157;-65
2021/09/11 00:10:41;;;;;;;13.35;10.45;;;;;;;18.31;100.00;96055.25;1040393;28;20025;-65
2021/09/11 00:11:12;;;;;;;12.23;10.40;;;;;;;18.28;100.00;96053.97;1040634;28;20030;-65
2021/09/11 00:11:42;;;;;;;12.73;10.40;;;;;;;18.29;100.00;96057.47;1044517;28;20190;-65
2021/09/11 00:12:13;;;;;;;13.17;10.70;;;;;;;18.26;100.00;96055.38;1044877;28;20485;-65
2021/09/11 00:12:43;;;;;;;16.27;10.53;;;;;;;18.29;99.83;96052.06;1044884;28;20024;-65
2021/09/11 00:13:14;;;;;;;13.90;10.67;;;;;;;18.28;99.99;96050.47;1044835;28;20094;-65
2021/09/11 00:13:44;;;;;;;13.50;10.37;;;;;;;18.31;100.00;96053.31;1044861;28;20028;-65
2021/09/11 00:14:15;;;;;;;15.27;10.83;;;;;;;18.30;100.00;96050.94;1044805;28;20079;-65
2021/09/11 00:14:45;;;;;;;13.03;10.50;;;;;;;18.29;100.00;96049.34;1044773;28;20033;-65
2021/09/11 00:15:17;;;;;;;12.73;11.00;;;;;;;18.28;100.00;96051.28;1044785;28;20029;-65
2021/09/11 00:15:49;;;;;;;14.07;11.30;;;;;;;18.25;100.00;96056.50;1044815;28;20021;-65
2021/09/11 00:16:19;;;;;;;14.15;11.48;;;;;;;18.18;100.00;96057.78;1044782;28;20377;-65
2021/09/11 00:16:49;;;;;;;15.50;11.53;;;;;;;18.17;100.00;96058.09;1044796;28;20025;-65
2021/09/11 00:17:20;;;;;;;13.03;11.63;;;;;;;18.23;100.00;96056.84;1044823;28;20382;-65
2021/09/11 00:17:51;;;;;;;14.63;11.70;;;;;;;18.24;100.00;96055.72;1044822;28;20470;-65
2021/09/11 00:18:22;;;;;;;11.68;10.43;;;;;;;18.27;100.00;96062.38;1044814;28;20024;-65
2021/09/11 00:18:52;;;;;;;13.33;10.57;;;;;;;18.29;100.00;96054.78;1044837;28;20032;-65
2021/09/11 00:19:23;;;;;;;13.53;10.13;;;;;;;18.31;100.00;96061.44;1044766;28;20040;-65
2021/09/11 00:19:53;;;;;;;13.07;10.87;;;;;;;18.30;100.00;96059.06;1039887;28;20379;-66
2021/09/11 00:20:23;;;;;;;14.63;10.63;;;;;;;18.34;100.00;96062.72;1040422;28;20489;-65
2021/09/11 00:20:54;;;;;;;14.03;11.43;;;;;;;18.27;100.00;96065.91;1040389;28;20467;-65
2021/09/11 00:21:24;;;;;;;16.73;11.23;;;;;;;18.21;100.00;96052.84;1040345;28;20022;-65
2021/09/11 00:21:55;;;;;;;15.10;11.77;;;;;;;18.19;100.00;96056.66;1044836;28;20025;-65
2021/09/11 00:22:25;;;;;;;19.40;11.50;;;;;;;18.26;100.00;96058.09;1044801;28;20028;-65
2021/09/11 00:22:56;;;;;;;13.00;11.00;;;;;;;18.30;100.00;96062.56;1044803;28;20100;-65
2021/09/11 00:23:27;;;;;;;14.80;11.07;;;;;;;18.30;100.00;96056.34;1044727;28;20013;-65
2021/09/11 00:23:57;;;;;;;12.63;10.67;;;;;;;18.28;100.00;96067.50;1044774;28;20031;-65
2021/09/11 00:24:28;;;;;;;13.33;11.43;;;;;;;18.23;100.00;96061.44;1044327;28;20455;-65
2021/09/11 00:24:58;;;;;;;12.87;10.53;;;;;;;18.25;100.00;96062.72;1040285;28;20599;-65
2021/09/11 00:25:29;;;;;;;13.80;11.57;;;;;;;18.22;100.00;96060.66;1036233;28;20463;-65
2021/09/11 00:25:59;;;;;;;14.43;11.17;;;;;;;18.27;100.00;96065.09;1036243;28;20030;-65
2021/09/11 00:26:30;;;;;;;15.30;11.53;;;;;;;18.29;100.00;96057.47;1040472;28;20378;-65
2021/09/11 00:27:00;;;;;;;16.07;11.07;;;;;;;18.29;100.00;96057.47;1044478;28;20020;-65
2021/09/11 00:27:30;;;;;;;18.13;11.50;;;;;;;18.24;100.00;96066.53;1044821;28;20017;-65
2021/09/11 00:28:01;;;;;;;16.23;11.27;;;;;;;18.27;100.00;96063.22;1044625;28;20017;-65
2021/09/11 00:28:34;;;;;;;14.43;11.10;;;;;;;18.25;100.00;96060.00;1044373;28;20016;-65
2021/09/11 00:29:05;;;;;;;13.23;11.82;;;;;;;18.23;100.00;96067.66;1040428;28;20406;-65
2021/09/11 00:29:37;;;;;;;15.53;11.43;;;;;;;18.25;100.00;96067.34;1040085;28;20013;-66
2021/09/11 00:30:08;;;;;;;11.75;10.50;;;;;;;18.26;100.00;96067.00;1040287;28;20025;-65
2021/09/11 00:30:38;;;;;;;13.47;11.20;;;;;;;18.22;100.00;96068.78;1036489;28;20409;-65
2021/09/11 00:31:09;;;;;;;13.43;12.00;;;;;;;18.23;100.00;96066.88;1040352;28;20021;-65
2021/09/11 00:31:39;;;;;;;14.67;11.90;;;;;;;18.13;100.00;96062.56;1040380;28;20017;-65
2021/09/11 00:32:09;;;;;;;15.43;11.97;;;;;;;18.14;100.00;96059.53;1040274;28;20017;-65
2021/09/11 00:32:45;;;;;;;12.90;11.50;;;;;;;18.13;100.00;96054.44;1040676;28;20010;-65
2021/09/11 00:33:16;;;;;;;16.17;11.80;;;;;;;18.15;100.00;96061.09;1040677;28;20013;-65
2021/09/11 00:33:46;;;;;;;18.43;12.27;;;;;;;18.11;100.00;96057.44;1040650;28;20454;-65
2021/09/11 00:34:17;;;;;;;14.40;11.63;;;;;;;18.13;100.00;96063.34;1040586;28;20382;-65
2021/09/11 00:34:47;;;;;;;15.60;11.70;;;;;;;18.16;100.00;96061.91;1040523;28;20481;-65
2021/09/11 00:35:18;;;;;;;13.63;12.03;;;;;;;18.15;100.00;96063.03;1040642;28;20025;-65
2021/09/11 00:35:48;;;;;;;16.10;12.10;;;;;;;18.11;100.00;96060.16;1044513;28;20017;-65
2021/09/11 00:36:19;;;;;;;14.40;12.37;;;;;;;18.12;100.00;96067.16;1044405;28;20371;-65
2021/09/11 00:36:49;;;;;;;14.37;11.67;;;;;;;18.11;100.00;96062.84;1044477;28;20485;-65
2021/09/11 00:37:20;;;;;;;14.90;11.83;;;;;;;18.11;100.00;96062.84;1044317;28;20383;-65
2021/09/11 00:37:50;;;;;;;14.80;12.07;;;;;;;18.13;100.00;96067.97;1040684;28;20009;-65
2021/09/11 00:38:20;;;;;;;15.80;11.90;;;;;;;18.14;100.00;96062.22;1040555;28;20021;-65
2021/09/11 00:38:51;;;;;;;15.13;12.87;;;;;;;18.13;100.00;96063.34;1040625;28;20014;-65
2021/09/11 00:39:23;;;;;;;15.30;11.87;;;;;;;18.12;100.00;96069.09;1040609;28;20021;-65
2021/09/11 00:39:53;;;;;;;14.52;12.13;;;;;;;18.13;100.00;96068.75;1043598;28;20020;-65
2021/09/11 00:40:24;;;;;;;16.63;12.00;;;;;;;18.13;100.00;96066.06;1044687;28;20497;-65
2021/09/11 00:40:54;;;;;;;17.03;12.10;;;;;;;18.17;100.00;96066.22;1044752;28;20028;-65
2021/09/11 00:41:25;;;;;;;14.23;11.97;;;;;;;18.17;100.00;96064.31;1044671;28;20032;-65
2021/09/11 00:41:55;;;;;;;13.07;11.67;;;;;;;18.14;100.00;96064.94;1044463;28;20028;-65
2021/09/11 00:42:26;;;;;;;15.93;11.63;;;;;;;18.16;100.00;96067.31;1044378;28;20017;-65
2021/09/11 00:42:56;;;;;;;13.67;11.90;;;;;;;18.12;100.00;96064.47;1044381;28;20039;-65
2021/09/11 00:43:27;;;;;;;16.33;12.17;;;;;;;18.12;100.00;96060.97;1044355;28;20028;-67
2021/09/11 00:43:57;;;;;;;14.70;12.33;;;;;;;18.08;100.00;96058.09;1044737;28;20028;-65
2021/09/11 00:44:28;;;;;;;16.43;12.80;;;;;;;18.10;100.00;96066.66;1044501;28;20024;-65
2021/09/11 00:44:58;;;;;;;21.10;14.03;;;;;;;18.08;100.00;96062.69;1044318;28;20024;-65
2021/09/11 00:45:29;;;;;;;19.50;12.90;;;;;;;18.06;100.00;96063.00;1044280;28;20473;-65
2021/09/11 00:45:59;;;;;;;15.87;13.03;;;;;;;18.12;100.00;96066.38;1044408;28;20032;-65
2021/09/11 00:46:30;;;;;;;16.30;12.80;;;;;;;18.11;100.00;96062.06;1044157;28;20017;-65
2021/09/11 00:47:00;;;;;;;16.47;12.67;;;;;;;18.13;100.00;96066.06;1044734;28;20028;-65
2021/09/11 00:47:30;;;;;;;15.13;11.70;;;;;;;18.16;100.00;96065.41;1044691;28;20025;-65
2021/09/11 00:48:01;;;;;;;16.00;12.50;;;;;;;18.14;100.00;96061.44;1044744;28;20016;-65
2021/09/11 00:48:31;;;;;;;16.07;11.87;;;;;;;18.16;100.00;96064.59;1044626;28;20021;-65
2021/09/11 00:49:02;;;;;;;16.73;12.13;;;;;;;18.12;100.00;96061.75;1044748;28;20067;-65
2021/09/11 00:49:32;;;;;;;14.33;12.33;;;;;;;18.13;100.00;96066.06;1044265;28;20087;-65
2021/09/11 00:50:04;;;;;;;16.43;12.77;;;;;;;18.10;100.00;96065.88;1044112;28;20032;-65
2021/09/11 00:50:34;;;;;;;17.48;12.70;;;;;;;18.08;100.00;96070.81;1040165;28;20036;-65
2021/09/11 00:51:05;;;;;;;14.47;12.60;;;;;;;18.07;100.00;96072.72;1040347;28;20045;-65
2021/09/11 00:51:35;;;;;;;14.50;12.30;;;;;;;18.07;100.00;96071.94;1040263;28;20029;-65
2021/09/11 00:52:06;;;;;;;18.47;12.30;;;;;;;18.10;100.00;96074.00;1040315;28;20061;-65
2021/09/11 00:52:38;;;;;;;16.13;12.77;;;;;;;18.07;100.00;96075.44;1040422;28;20417;-65
2021/09/11 00:53:09;;;;;;;14.15;12.30;;;;;;;18.09;100.00;96075.09;1040232;28;20071;-65
2021/09/11 00:53:40;;;;;;;15.80;12.68;;;;;;;18.04;100.00;96073.34;1041450;28;20072;-65
2021/09/11 00:54:10;;;;;;;16.60;12.67;;;;;;;18.08;100.00;96079.72;1045230;28;20033;-66
2021/09/11 00:54:41;;;;;;;16.63;12.37;;;;;;;18.07;100.00;96072.72;1045317;28;20025;-65
2021/09/11 00:55:12;;;;;;;14.97;12.13;;;;;;;18.08;100.00;96073.53;1037638;28;20036;-66
2021/09/11 00:55:43;;;;;;;15.40;12.70;;;;;;;18.09;100.00;96075.09;1036115;28;20359;-66
2021/09/11 00:56:13;;;;;;;14.87;12.67;;;;;;;18.07;100.00;96069.22;1036112;28;20040;-65
2021/09/11 00:56:43;;;;;;;14.70;12.27;;;;;;;18.06;100.00;96075.72;1036551;28;20025;-65
2021/09/11 00:57:14;;;;;;;12.87;11.43;;;;;;;18.09;100.00;96073.19;1048469;28;20051;-65
2021/09/11 00:57:46;;;;;;;16.40;12.13;;;;;;;18.08;100.00;96077.03;1044367;28;20045;-66
2021/09/11 00:58:16;;;;;;;15.02;12.25;;;;;;;18.10;100.00;96080.19;1048457;28;20020;-66
2021/09/11 00:58:46;;;;;;;13.90;12.10;;;;;;;18.08;100.00;96074.31;1047759;28;20029;-65
2021/09/11 00:59:17;;;;;;;17.80;12.57;;;;;;;18.06;100.00;96079.22;1036309;28;20101;-65
2021/09/11 00:59:47;;;;;;;15.53;12.80;;;;;;;18.10;100.00;96077.50;1040033;28;20052;-65
2021/09/11 01:00:18;;;;;;;15.93;13.20;;;;;;;18.05;100.00;96074.94;1032101;28;20061;-65
2021/09/11 01:00:48;;;;;;;14.93;11.93;;;;;;;18.12;100.00;96079.91;1032805;28;20030;-65
2021/09/11 01:01:19;;;;;;;15.67;13.17;;;;;;;18.12;100.00;96072.56;1043359;28;20103;-65
2021/09/11 01:01:49;;;;;;;14.73;12.83;;;;;;;18.08;100.00;96077.03;1039974;28;20489;-65
2021/09/11 01:02:19;;;;;;;15.53;11.97;;;;;;;18.13;100.00;96073.38;1040578;28;20028;-72
2021/09/11 01:02:50;;;;;;;15.80;12.93;;;;;;;18.07;100.00;96080.03;1035940;28;20044;-72
2021/09/11 01:03:20;;;;;;;14.97;12.77;;;;;;;18.11;100.00;96076.38;1037085;28;20048;-72
2021/09/11 01:03:51;;;;;;;15.23;12.63;;;;;;;18.15;100.00;96076.53;1036783;28;20033;-72
2021/09/11 01:04:21;;;;;;;15.63;12.63;;;;;;;18.14;100.00;96074.97;1036233;28;20093;-71
2021/09/11 01:04:51;;;;;;;15.33;12.27;;;;;;;18.15;100.00;96080.03;1040880;28;20029;-71
2021/09/11 01:05:22;;;;;;;13.67;11.60;;;;;;;18.16;100.00;96076.22;1041276;28;20028;-72
2021/09/11 01:05:52;;;;;;;17.40;12.70;;;;;;;18.17;100.00;96080.53;1042125;28;20039;-71
2021/09/11 01:06:23;;;;;;;13.37;11.90;;;;;;;18.17;100.00;96082.44;1039994;28;20022;-71
2021/09/11 01:06:54;;;;;;;15.27;12.85;;;;;;;18.18;100.00;96084.03;1045132;28;20032;-71
2021/09/11 01:07:25;;;;;;;16.33;12.63;;;;;;;18.18;100.00;96082.13;1037596;28;20010;-71
2021/09/11 01:07:55;;;;;;;15.67;12.57;;;;;;;18.21;100.00;96085.31;1039773;28;20155;-72
2021/09/11 01:08:26;;;;;;;13.77;12.27;;;;;;;18.21;100.00;96079.88;1040998;28;20034;-71
2021/09/11 01:08:57;;;;;;;14.27;12.77;;;;;;;18.22;100.00;96078.78;1037628;28;20071;-71
2021/09/11 01:09:27;;;;;;;16.07;12.40;;;;;;;18.21;100.00;96083.38;1033859;28;20438;-71
2021/09/11 01:09:58;;;;;;;17.73;12.20;;;;;;;18.22;100.00;96090.41;1024369;28;20027;-71
2021/09/11 01:10:29;;;;;;;15.07;11.73;;;;;;;18.23;100.00;96083.09;1028110;28;20399;-72
2021/09/11 01:10:59;;;;;;;16.10;12.30;;;;;;;18.22;100.00;96085.00;1028842;28;20078;-71
2021/09/11 01:11:29;;;;;;;16.00;12.20;;;;;;;18.19;100.00;96088.31;1025483;28;20026;-71
2021/09/11 01:12:00;;;;;;;14.57;11.87;;;;;;;18.17;100.00;96083.25;1025503;28;20015;-71
2021/09/11 01:12:30;;;;;;;15.87;12.83;;;;;;;18.24;100.00;96090.09;1023913;29;20020;-71
2021/09/11 01:13:01;;;;;;;15.07;12.40;;;;;;;18.25;100.00;96087.06;1024055;28;20027;-71
2021/09/11 01:13:32;;;;;;;16.03;13.03;;;;;;;18.19;100.00;96086.41;1028937;28;20026;-71
2021/09/11 01:14:02;;;;;;;14.32;12.18;;;;;;;18.19;100.00;96089.13;1032422;28;20507;-71
2021/09/11 01:14:33;;;;;;;14.60;12.30;;;;;;;18.23;100.00;96089.28;1040282;28;20013;-71
2021/09/11 01:15:08;;;;;;;14.73;12.63;;;;;;;18.22;100.00;96090.41;1040229;28;20022;-73
2021/09/11 01:15:39;;;;;;;16.42;11.85;;;;;;;18.23;100.00;96086.59;1038706;28;20040;-71
2021/09/11 01:16:10;;;;;;;13.82;12.32;;;;;;;18.24;100.00;96090.88;1032034;28;20033;-71
2021/09/11 01:16:40;;;;;;;14.97;12.00;;;;;;;18.25;100.00;96086.25;1032816;28;20080;-71
2021/09/11 01:17:14;;;;;;;15.93;12.23;;;;;;;18.26;100.00;96087.84;1036351;28;20022;-71
2021/09/11 01:17:46;;;;;;;15.85;12.93;;;;;;;18.21;100.00;96085.31;1037710;28;20454;-72
2021/09/11 01:18:17;;;;;;;13.52;11.90;;;;;;;18.18;100.00;96084.03;1044266;28;20498;-71
2021/09/11 01:18:47;;;;;;;21.73;13.10;;;;;;;18.10;100.00;96082.09;1044171;28;20020;-71
2021/09/11 01:19:17;;;;;;;14.17;12.00;;;;;;;18.09;100.00;96088.63;1044267;28;20013;-71
2021/09/11 01:19:48;;;;;;;13.63;12.20;;;;;;;18.07;100.00;96088.94;1043152;28;20017;-71
2021/09/11 01:20:18;;;;;;;14.00;12.30;;;;;;;18.07;100.00;96086.25;1039989;28;20052;-72
2021/09/11 01:20:49;;;;;;;15.57;12.03;;;;;;;18.11;100.00;96089.91;1036653;28;20112;-72
2021/09/11 01:21:19;;;;;;;15.57;12.90;;;;;;;18.11;100.00;96080.97;1033246;28;20498;-71
2021/09/11 01:21:49;;;;;;;18.93;13.23;;;;;;;18.07;100.00;96080.03;1040530;28;20689;-71
2021/09/11 01:22:20;;;;;;;14.87;12.77;;;;;;;18.05;100.00;96087.66;1044152;28;20021;-71
2021/09/11 01:22:51;;;;;;;14.73;12.67;;;;;;;18.07;100.00;96083.53;1044106;28;20025;-71
2021/09/11 01:23:21;;;;;;;13.87;12.00;;;;;;;18.08;100.00;96081.63;1044110;28;20105;-71
2021/09/11 01:23:52;;;;;;;13.63;12.23;;;;;;;18.12;100.00;96091.50;1040976;28;20410;-73
2021/09/11 01:24:22;;;;;;;16.80;12.60;;;;;;;18.07;100.00;96083.53;1040150;28;20033;-71
2021/09/11 01:24:59;;;;;;;15.70;12.27;;;;;;;18.07;100.00;96088.16;1037462;28;20040;-71
2021/09/11 01:25:30;;;;;;;15.90;12.30;;;;;;;18.05;100.00;96093.88;1037385;28;20121;-71
2021/09/11 01:26:00;;;;;;;19.53;13.00;;;;;;;18.05;100.00;96090.38;1029047;28;20015;-73
2021/09/11 01:26:31;;;;;;;16.17;12.77;;;;;;;18.01;100.00;96090.19;1029676;28;20030;-71
2021/09/11 01:27:01;;;;;;;13.30;11.90;;;;;;;18.03;100.00;96090.69;1032306;28;20022;-72
2021/09/11 01:27:31;;;;;;;14.57;12.77;;;;;;;18.08;100.00;96089.75;1031987;28;20030;-73
2021/09/11 01:28:02;;;;;;;16.17;12.57;;;;;;;18.12;100.00;96088.00;1035876;28;20021;-72
2021/09/11 01:28:32;;;;;;;15.30;11.93;;;;;;;18.12;100.00;96090.72;1037773;28;20037;-72
2021/09/11 01:29:03;;;;;;;15.67;13.17;;;;;;;18.07;100.00;96083.53;1031954;28;20072;-72
2021/09/11 01:29:33;;;;;;;13.97;12.47;;;;;;;18.03;100.00;96090.69;1032117;28;20356;-72
2021/09/11 01:30:14;;;;;;;17.03;12.60;;;;;;;18.04;100.00;96089.56;1037300;28;20057;-72
2021/09/11 01:30:44;;;;;;;15.63;12.38;;;;;;;18.05;100.00;96093.88;1033707;28;20038;-72
2021/09/11 01:31:15;;;;;;;18.37;12.30;;;;;;;18.06;100.00;96089.25;1036734;28;20041;-72
2021/09/11 01:31:45;;;;;;;14.57;12.97;;;;;;;18.07;100.00;96093.56;1036578;28;21166;-72
2021/09/11 01:32:16;;;;;;;15.00;12.50;;;;;;;18.08;100.00;96089.75;1041295;28;20029;-72
2021/09/11 01:32:47;;;;;;;13.57;11.73;;;;;;;18.12;100.00;96096.13;1047508;28;20028;-73
2021/09/11 01:33:17;;;;;;;14.27;12.02;;;;;;;18.13;100.00;96089.59;1048342;28;20025;-72
2021/09/11 01:33:47;;;;;;;14.60;12.37;;;;;;;18.16;100.00;96097.84;1044179;28;20079;-72
2021/09/11 01:34:18;;;;;;;16.60;12.60;;;;;;;18.19;100.00;96088.31;1040015;28;20091;-72
2021/09/11 01:34:49;;;;;;;14.87;11.87;;;;;;;18.18;100.00;96089.44;1040717;28;20453;-72
2021/09/11 01:35:20;;;;;;;16.85;12.73;;;;;;;18.18;100.00;96084.84;1040218;28;20072;-72
2021/09/11 01:35:53;;;;;;;13.77;12.27;;;;;;;18.16;100.00;96087.03;1036027;28;20025;-72
2021/09/11 01:36:23;;;;;;;14.38;11.25;;;;;;;18.19;100.00;96091.03;1031817;28;20100;-72
2021/09/11 01:36:54;;;;;;;15.53;12.53;;;;;;;18.14;100.00;96088.47;1031913;28;20030;-72
2021/09/11 01:37:24;;;;;;;14.93;12.63;;;;;;;18.15;100.00;96090.06;1032853;28;20026;-72
2021/09/11 01:37:55;;;;;;;18.57;13.10;;;;;;;18.10;100.00;96085.59;1037451;28;20025;-72
2021/09/11 01:38:25;;;;;;;14.27;12.67;;;;;;;18.11;100.00;96084.47;1036413;28;20030;-72
2021/09/11 01:38:55;;;;;;;14.90;12.03;;;;;;;18.12;100.00;96088.81;1044050;28;20024;-72
2021/09/11 01:39:26;;;;;;;15.07;12.60;;;;;;;18.14;100.00;96089.28;1036073;28;20439;-72
2021/09/11 01:39:56;;;;;;;17.07;12.30;;;;;;;18.10;100.00;96085.59;1036072;28;20503;-72
2021/09/11 01:40:27;;;;;;;16.00;11.67;;;;;;;18.09;100.00;96086.72;1031466;28;20014;-73
2021/09/11 01:40:57;;;;;;;14.30;12.20;;;;;;;18.09;100.00;96089.41;1027947;28;20062;-72
2021/09/11 01:41:28;;;;;;;13.97;12.47;;;;;;;18.10;100.00;96092.91;1035762;28;20022;-72
2021/09/11 01:41:58;;;;;;;14.67;12.47;;;;;;;18.09;100.00;96086.72;1036074;28;20022;-72
2021/09/11 01:42:28;;;;;;;17.77;13.10;;;;;;;18.10;100.00;96088.31;1044819;28;20078;-72
2021/09/11 01:42:59;;;;;;;14.33;12.10;;;;;;;18.12;100.00;96086.09;1048436;28;20020;-72
2021/09/11 01:43:30;;;;;;;13.50;11.97;;;;;;;18.14;100.00;96083.88;1048321;28;20021;-72
2021/09/11 01:44:02;;;;;;;14.45;12.18;;;;;;;18.18;100.00;96092.16;1048285;28;20044;-72
2021/09/11 01:44:32;;;;;;;16.38;13.07;;;;;;;18.12;100.00;96085.31;1047016;28;20013;-72
2021/09/11 01:45:21;;;;;;;18.90;13.67;;;;;;;18.06;100.00;96094.66;1040278;28;20459;-72
2021/09/11 01:45:52;;;;;;;15.75;12.68;;;;;;;18.08;100.00;96095.16;1035954;28;20030;-72
2021/09/11 01:46:22;;;;;;;16.27;12.63;;;;;;;18.09;100.00;96085.94;1036040;28;20021;-72
2021/09/11 01:46:53;;;;;;;18.73;13.00;;;;;;;18.11;100.00;96084.47;1042495;28;20021;-72
2021/09/11 01:47:23;;;;;;;14.67;12.00;;;;;;;18.11;100.00;96089.91;1036220;28;20549;-72
2021/09/11 01:47:54;;;;;;;17.03;13.97;;;;;;;18.07;100.00;96083.53;1037698;28;20040;-72
2021/09/11 01:48:26;;;;;;;14.33;12.57;;;;;;;18.03;100.00;96082.56;1036058;28;20018;-72
2021/09/11 01:48:56;;;;;;;14.95;13.35;;;;;;;18.01;100.00;96087.47;1036416;28;20514;-72
2021/09/11 01:49:26;;;;;;;14.80;13.07;;;;;;;18.02;100.00;96091.81;1044209;28;20028;-72
2021/09/11 01:49:57;;;;;;;16.00;13.57;;;;;;;17.94;100.00;96092.56;1044422;28;20029;-72
2021/09/11 01:50:27;;;;;;;15.90;13.57;;;;;;;17.94;100.00;96089.88;1047715;28;20013;-72
2021/09/11 01:50:58;;;;;;;14.87;13.10;;;;;;;17.97;100.00;96083.03;1044059;28;20373;-72
2021/09/11 01:51:28;;;;;;;16.07;12.83;;;;;;;17.93;100.00;96088.28;1039974;28;20470;-72
2021/09/11 01:51:59;;;;;;;14.67;12.63;;;;;;;17.94;100.00;96092.56;1040026;28;20025;-72
2021/09/11 01:52:29;;;;;;;17.00;13.10;;;;;;;17.96;100.00;96084.94;1040889;28;20025;-72
2021/09/11 01:53:00;;;;;;;13.80;12.27;;;;;;;17.96;100.00;96084.13;1044244;28;20412;-72
2021/09/11 01:53:30;;;;;;;15.17;13.27;;;;;;;17.99;100.00;96091.63;1048351;28;20485;-72
2021/09/11 01:54:00;;;;;;;16.30;13.53;;;;;;;17.93;100.00;96090.97;1048301;28;20036;-72
2021/09/11 01:54:31;;;;;;;16.93;13.43;;;;;;;17.89;100.00;96085.41;1047248;28;20020;-72
2021/09/11 01:55:04;;;;;;;16.13;12.40;;;;;;;17.97;100.00;96091.16;1044345;28;20013;-72
2021/09/11 01:55:34;;;;;;;17.98;13.68;;;;;;;17.95;100.00;96087.94;1044441;28;20025;-72
2021/09/11 01:56:05;;;;;;;16.00;13.10;;;;;;;17.92;100.00;96086.69;1044119;28;20012;-72
2021/09/11 01:56:35;;;;;;;15.70;12.93;;;;;;;17.89;100.00;96088.09;1045689;28;20039;-72
2021/09/11 01:57:06;;;;;;;18.77;13.67;;;;;;;17.86;100.00;96083.34;1048267;28;20028;-72
2021/09/11 01:57:38;;;;;;;18.88;12.75;;;;;;;17.91;100.00;96076.97;1044227;28;20470;-72
2021/09/11 01:58:08;;;;;;;16.13;13.20;;;;;;;17.87;100.00;96089.53;1044285;28;20064;-73
2021/09/11 01:58:38;;;;;;;19.07;12.83;;;;;;;17.91;100.00;96085.06;1046187;28;20033;-72
2021/09/11 01:59:09;;;;;;;17.07;14.20;;;;;;;17.87;100.00;96078.72;1048248;28;20020;-72
2021/09/11 01:59:40;;;;;;;16.67;13.77;;;;;;;17.84;100.00;96082.03;1048581;28;20021;-72
2021/09/11 02:00:15;;;;;;;15.87;13.60;;;;;;;17.85;100.00;96087.13;1048176;28;20119;-72
2021/09/11 02:00:45;;;;;;;17.95;14.18;;;;;;;17.85;100.00;96081.72;1041014;28;20161;-72
2021/09/11 02:01:15;;;;;;;17.43;13.43;;;;;;;17.82;100.00;96084.28;1041006;28;20033;-72
2021/09/11 02:01:46;;;;;;;21.07;14.90;;;;;;;17.83;100.00;96080.47;1042554;28;20458;-72
2021/09/11 02:02:16;;;;;;;16.80;13.67;;;;;;;17.81;100.00;96075.38;1046536;28;20033;-71
2021/09/11 02:02:47;;;;;;;18.70;14.43;;;;;;;17.82;100.00;96079.66;1048332;28;20028;-72
2021/09/11 02:03:17;;;;;;;15.80;14.07;;;;;;;17.81;100.00;96082.66;1043948;28;20036;-73
2021/09/11 02:03:48;;;;;;;15.93;12.97;;;;;;;17.85;100.00;96084.44;1043888;28;20086;-72
2021/09/11 02:04:18;;;;;;;18.30;13.70;;;;;;;17.89;100.00;96081.91;1043915;28;20492;-72
2021/09/11 02:04:48;;;;;;;18.13;13.50;;;;;;;17.89;100.00;96079.19;1039971;28;20072;-73
2021/09/11 02:05:19;;;;;;;18.13;13.57;;;;;;;17.88;100.00;96083.81;1048031;28;20028;-73
2021/09/11 02:05:49;;;;;;;18.00;14.07;;;;;;;17.89;100.00;96077.28;1048284;28;20033;-72
2021/09/11 02:06:21;;;;;;;17.73;13.97;;;;;;;17.88;100.00;96083.00;1044139;28;20100;-72
2021/09/11 02:06:52;;;;;;;21.60;14.57;;;;;;;17.88;100.00;96080.31;1048262;28;20108;-72
2021/09/11 02:07:22;;;;;;;17.40;14.77;;;;;;;17.80;100.00;96081.06;1048283;28;20028;-72
2021/09/11 02:07:53;;;;;;;17.97;14.50;;;;;;;17.82;100.00;96082.38;1042787;28;20025;-72
2021/09/11 02:08:23;;;;;;;18.87;14.27;;;;;;;17.81;100.00;96080.78;1039995;28;20021;-72
2021/09/11 02:08:53;;;;;;;18.00;15.70;;;;;;;17.79;100.00;96082.19;1040023;28;20021;-72
2021/09/11 02:09:24;;;;;;;21.77;15.63;;;;;;;17.75;100.00;96079.31;1035959;28;20029;-72
2021/09/11 02:09:55;;;;;;;18.53;15.77;;;;;;;17.73;100.00;96084.25;1031837;28;20120;-72
2021/09/11 02:10:25;;;;;;;19.20;16.93;;;;;;;17.68;100.00;96077.03;1035950;28;20017;-72
2021/09/11 02:10:56;;;;;;;19.00;16.37;;;;;;;17.64;100.00;96073.38;1036025;28;20018;-72
2021/09/11 02:11:26;;;;;;;21.00;16.13;;;;;;;17.66;100.00;96081.97;1036190;28;20089;-72
2021/09/11 02:11:57;;;;;;;20.40;17.03;;;;;;;17.61;100.00;96081.31;1044067;28;20012;-72
2021/09/11 02:12:27;;;;;;;22.03;18.17;;;;;;;17.58;100.00;96085.44;1044058;28;20025;-72
2021/09/11 02:12:59;;;;;;;24.60;19.83;;;;;;;17.55;100.00;96085.25;1040048;28;20024;-72
2021/09/11 02:13:29;;;;;;;23.40;18.75;;;;;;;17.51;100.00;96079.69;1039927;28;20453;-72
2021/09/11 02:14:00;;;;;;;24.63;19.57;;;;;;;17.50;100.00;96088.88;1039936;28;20033;-72
2021/09/11 02:14:30;;;;;;;22.83;19.30;;;;;;;17.50;100.00;96088.88;1036127;28;20022;-71
2021/09/11 02:15:01;;;;;;;27.83;19.70;;;;;;;17.49;100.00;96094.59;1035992;28;20022;-72
2021/09/11 02:15:32;;;;;;;26.87;19.83;;;;;;;17.46;100.00;96087.13;1035869;28;20053;-71
2021/09/11 02:16:02;;;;;;;25.87;20.60;;;;;;;17.38;100.00;96088.69;1036017;28;20105;-71
2021/09/11 02:16:32;;;;;;;25.20;20.53;;;;;;;17.37;100.00;96090.59;1040163;28;20025;-71
2021/09/11 02:17:03;;;;;;;25.10;19.73;;;;;;;17.36;100.00;96096.31;1040117;28;20467;-71
2021/09/11 02:17:34;;;;;;;25.37;21.20;;;;;;;17.33;100.00;96095.00;1044126;28;20025;-71
2021/09/11 02:18:04;;;;;;;26.30;21.27;;;;;;;17.28;100.00;96097.84;1035477;28;20018;-71
2021/09/11 02:18:35;;;;;;;27.47;21.77;;;;;;;17.21;100.00;96094.00;1035928;28;20037;-71
2021/09/11 02:19:05;;;;;;;27.77;22.10;;;;;;;17.21;100.00;96091.31;1040003;28;20033;-71
2021/09/11 02:19:35;;;;;;;27.27;22.73;;;;;;;17.13;100.00;96092.84;1040027;28;20033;-71